Time;durP1;ratioP1;P1;durP2;ratioP2;P2;SDS_P1;SDS_P2;PMS_P1;PMS_P2;Temp;Humidity;BMP_temperature;BMP_pressure;BME280_temperature;BME280_humidity;BME280_pressure;Samples;Min_cycle;Max_cycle;Signal;HPM_P1;HPM_P2
2022/01/25 00:16:08;;;;;;;12.33;10.30;;;6.30;58.80;;;;;;4968109;28;20501;-44
2022/01/25 00:33:28;;;;;;;13.17;9.57;;;6.60;57.60;;;;;;4968190;28;20863;-43
2022/01/25 00:35:54;;;;;;;14.23;10.57;;;6.60;57.90;;;;;;4969711;28;20440;-45
2022/01/25 00:38:20;;;;;;;14.67;10.20;;;6.70;57.20;;;;;;4967278;28;20509;-44
2022/01/25 00:40:45;;;;;;;13.83;9.90;;;6.80;57.10;;;;;;4968859;28;20231;-44
2022/01/25 00:43:11;;;;;;;14.37;9.97;;;6.70;56.70;;;;;;4969497;28;20282;-44
2022/01/25 00:45:36;;;;;;;11.10;8.97;;;6.80;56.80;;;;;;4966944;28;20697;-44
2022/01/25 00:48:05;;;;;;;13.97;10.03;;;6.80;56.50;;;;;;4966327;28;20219;-44
2022/01/25 00:50:40;;;;;;;12.50;9.70;;;6.70;56.50;;;;;;4972177;28;20303;-44
2022/01/25 00:55:33;;;;;;;13.77;9.23;;;6.60;56.80;;;;;;4970636;28;20438;-44
2022/01/25 00:57:59;;;;;;;13.87;10.03;;;6.50;57.10;;;;;;4965102;28;20274;-44
2022/01/25 01:00:27;;;;;;;14.77;10.97;;;6.50;57.20;;;;;;4969613;28;20442;-44
2022/01/25 01:02:53;;;;;;;16.00;10.13;;;6.50;57.10;;;;;;4970559;28;20946;-44
2022/01/25 01:05:20;;;;;;;16.93;10.23;;;6.50;57.00;;;;;;4971761;28;20454;-45
2022/01/25 01:07:47;;;;;;;21.17;11.13;;;6.40;57.30;;;;;;4970052;28;20955;-44
2022/01/25 01:10:16;;;;;;;15.57;10.87;;;6.10;57.30;;;;;;4971668;28;20476;-44
2022/01/25 01:13:17;;;;;;;14.50;9.77;;;6.10;57.90;;;;;;4967350;28;20864;-43
2022/01/25 01:15:40;;;;;;;15.07;10.87;;;6.10;58.00;;;;;;4973733;28;20486;-45
2022/01/25 01:31:46;;;;;;;17.63;10.70;;;5.50;59.30;;;;;;4965200;28;20490;-44
2022/01/25 01:42:52;;;;;;;13.90;10.00;;;5.40;59.30;;;;;;4968906;28;20933;-43
2022/01/25 01:50:31;;;;;;;14.87;10.30;;;5.70;59.00;;;;;;4971094;28;20459;-44
2022/01/25 01:52:58;;;;;;;14.37;11.00;;;5.40;59.10;;;;;;4966454;28;20446;-44
2022/01/25 01:55:26;;;;;;;14.90;10.40;;;5.50;59.40;;;;;;4966475;28;20482;-43
2022/01/25 01:57:53;;;;;;;12.70;10.30;;;5.40;59.50;;;;;;4969689;28;20446;-43
2022/01/25 02:00:23;;;;;;;14.33;10.20;;;5.20;59.80;;;;;;4971730;28;20887;-44
2022/01/25 02:02:49;;;;;;;14.67;10.03;;;5.10;60.30;;;;;;4967495;28;20939;-44
2022/01/25 02:05:15;;;;;;;13.07;10.30;;;5.10;60.20;;;;;;4967364;28;20443;-43
2022/01/25 02:07:41;;;;;;;12.57;10.00;;;5.00;60.50;;;;;;4968222;28;20451;-43
2022/01/25 02:10:08;;;;;;;12.27;8.90;;;5.10;60.30;;;;;;4966865;28;20590;-45
2022/01/25 02:12:34;;;;;;;14.77;10.90;;;5.20;60.20;;;;;;4963920;28;20239;-44
2022/01/25 02:15:02;;;;;;;18.20;10.90;;;5.30;59.90;;;;;;4972764;28;20443;-45
2022/01/25 02:23:18;;;;;;;13.80;11.40;;;5.50;59.40;;;;;;4970131;28;20482;-44
2022/01/25 02:25:49;;;;;;;17.70;11.20;;;5.50;59.30;;;;;;4969396;28;20442;-45
2022/01/25 02:28:16;;;;;;;13.03;9.77;;;5.50;59.10;;;;;;4969079;28;20460;-43
2022/01/25 02:30:43;;;;;;;13.80;9.97;;;5.60;58.90;;;;;;4965031;28;20895;-44
2022/01/25 02:33:08;;;;;;;16.50;11.53;;;5.60;58.90;;;;;;4964866;28;20446;-43
2022/01/25 02:35:35;;;;;;;15.53;10.33;;;5.50;59.20;;;;;;4963530;28;20434;-45
2022/01/25 02:38:00;;;;;;;15.07;10.27;;;5.40;59.40;;;;;;4963603;28;20274;-43
2022/01/25 02:40:26;;;;;;;14.13;10.27;;;5.30;59.80;;;;;;4970053;28;20577;-46
2022/01/25 02:42:53;;;;;;;16.30;11.57;;;5.30;59.70;;;;;;4968063;28;20187;-44
2022/01/25 02:45:19;;;;;;;16.10;10.70;;;5.30;59.90;;;;;;4968396;28;20221;-43
2022/01/25 02:50:29;;;;;;;16.23;11.27;;;5.00;60.60;;;;;;4968694;28;20457;-44
2022/01/25 02:52:55;;;;;;;16.67;11.77;;;5.10;60.90;;;;;;4968548;28;20450;-44
2022/01/25 02:55:21;;;;;;;19.30;12.73;;;5.10;60.40;;;;;;4964110;28;20443;-44
2022/01/25 02:57:47;;;;;;;15.33;10.87;;;5.20;60.50;;;;;;4967213;28;20439;-44
2022/01/25 03:00:14;;;;;;;16.50;11.67;;;5.50;60.20;;;;;;4968640;28;20203;-44
2022/01/25 03:02:40;;;;;;;17.23;10.40;;;5.60;59.60;;;;;;4971269;28;20827;-44
2022/01/25 03:05:06;;;;;;;16.93;11.30;;;5.80;59.00;;;;;;4970391;28;20457;-43
2022/01/25 03:07:33;;;;;;;17.87;11.63;;;5.50;58.80;;;;;;4971029;28;20195;-43
2022/01/25 03:10:00;;;;;;;13.83;11.37;;;5.40;59.50;;;;;;4970909;28;20956;-44
2022/01/25 03:12:45;;;;;;;16.20;12.33;;;5.20;60.50;;;;;;4971060;28;20885;-44
2022/01/25 03:17:57;;;;;;;15.50;11.87;;;5.20;60.60;;;;;;4968828;28;20439;-44
2022/01/25 03:20:36;;;;;;;16.90;11.37;;;5.20;61.30;;;;;;4971310;28;20446;-46
2022/01/25 03:23:16;;;;;;;18.87;12.70;;;5.10;61.40;;;;;;4968681;28;20442;-44
2022/01/25 03:25:41;;;;;;;15.67;11.37;;;5.20;61.00;;;;;;4970518;28;20443;-44
2022/01/25 03:28:07;;;;;;;15.90;11.57;;;5.30;60.40;;;;;;4969889;28;20461;-46
2022/01/25 03:30:33;;;;;;;19.53;13.40;;;5.40;60.10;;;;;;4968212;28;20214;-44
2022/01/25 03:32:58;;;;;;;19.07;12.80;;;5.40;60.00;;;;;;4971130;28;20325;-43
2022/01/25 03:35:24;;;;;;;19.10;12.73;;;5.40;60.20;;;;;;4973719;28;20214;-44
2022/01/25 03:37:49;;;;;;;19.43;13.27;;;5.50;60.10;;;;;;4976578;28;20213;-44
2022/01/25 03:40:15;;;;;;;15.80;12.60;;;5.60;59.60;;;;;;4978020;28;20195;-43
2022/01/25 03:42:41;;;;;;;19.50;13.27;;;5.70;59.10;;;;;;4977093;28;20257;-44
2022/01/25 03:45:08;;;;;;;15.93;11.70;;;5.80;58.80;;;;;;4977789;28;20549;-44
2022/01/25 03:50:32;;;;;;;21.63;11.60;;;5.90;58.20;;;;;;4941561;28;20971;-44
2022/01/25 03:52:58;;;;;;;15.23;11.50;;;5.90;57.70;;;;;;4977546;28;20462;-45
2022/01/25 03:55:23;;;;;;;15.50;11.27;;;5.80;57.10;;;;;;4978078;28;20237;-44
2022/01/25 03:57:49;;;;;;;17.90;10.70;;;5.60;57.70;;;;;;4976410;28;20202;-44
2022/01/25 04:00:16;;;;;;;16.97;11.13;;;5.40;58.00;;;;;;4977181;28;20606;-48
2022/01/25 04:02:50;;;;;;;13.80;10.30;;;5.40;58.20;;;;;;4974642;28;20566;-44
2022/01/25 04:05:22;;;;;;;18.90;12.33;;;5.50;58.20;;;;;;4974612;28;20565;-44
2022/01/25 04:07:50;;;;;;;18.57;11.90;;;5.60;57.90;;;;;;4972669;28;20485;-44
2022/01/25 04:10:20;;;;;;;20.20;12.30;;;5.60;57.60;;;;;;4971766;28;20451;-43
2022/01/25 04:12:46;;;;;;;17.80;11.40;;;5.70;57.60;;;;;;4969741;28;20470;-44
2022/01/25 04:15:12;;;;;;;16.03;11.30;;;5.60;57.40;;;;;;4973704;28;20803;-43
2022/01/25 04:17:40;;;;;;;15.30;10.50;;;5.60;57.30;;;;;;4972838;28;20446;-43
2022/01/25 04:20:57;;;;;;;14.63;10.17;;;5.50;57.20;;;;;;4973644;28;20803;-43
2022/01/25 04:25:38;;;;;;;17.20;11.13;;;5.10;57.80;;;;;;4976143;28;20542;-43
2022/01/25 04:28:04;;;;;;;17.13;11.67;;;4.90;58.50;;;;;;4972509;28;20525;-44
2022/01/25 04:30:29;;;;;;;22.77;12.50;;;4.80;59.30;;;;;;4975053;28;20199;-44
2022/01/25 04:33:04;;;;;;;17.20;12.20;;;4.70;59.60;;;;;;4977272;28;20678;-43
2022/01/25 04:49:16;;;;;;;20.27;12.70;;;4.50;60.80;;;;;;4972955;28;20505;-43
2022/01/25 04:51:52;;;;;;;18.50;11.70;;;4.60;60.30;;;;;;4966706;28;20493;-43
2022/01/25 04:54:30;;;;;;;16.27;11.60;;;4.80;59.70;;;;;;4970248;28;20458;-43
2022/01/25 05:02:08;;;;;;;18.37;12.73;;;5.10;58.40;;;;;;4968869;28;20446;-43
2022/01/25 05:04:40;;;;;;;19.30;11.83;;;5.10;58.10;;;;;;4968886;28;20854;-44
2022/01/25 05:07:45;;;;;;;19.63;13.33;;;5.20;57.90;;;;;;4974337;28;20438;-44
2022/01/25 05:09:59;;;;;;;16.53;12.20;;;5.20;58.00;;;;;;4965080;28;20955;-43
2022/01/25 05:13:12;;;;;;;20.50;12.60;;;5.30;57.80;;;;;;4968372;28;20498;-43
2022/01/25 05:15:48;;;;;;;19.17;12.33;;;5.30;57.50;;;;;;4963640;28;20455;-44
2022/01/25 05:23:14;;;;;;;18.73;12.60;;;5.20;57.60;;;;;;4968007;28;20501;-44
2022/01/25 05:25:40;;;;;;;26.23;12.50;;;5.10;58.00;;;;;;4965507;28;20450;-43
2022/01/25 05:28:06;;;;;;;20.37;12.60;;;5.10;57.90;;;;;;4969155;28;20200;-43
2022/01/25 05:30:32;;;;;;;16.50;11.30;;;5.00;58.10;;;;;;4969604;28;20594;-43
2022/01/25 05:32:57;;;;;;;22.87;13.43;;;5.00;58.10;;;;;;4969526;28;20253;-44
2022/01/25 05:35:23;;;;;;;18.57;12.20;;;4.90;58.20;;;;;;4974111;28;20206;-44
2022/01/25 05:37:49;;;;;;;17.43;11.63;;;4.90;58.30;;;;;;4967187;28;20651;-44
2022/01/25 05:40:15;;;;;;;19.30;12.27;;;5.10;58.10;;;;;;4968149;28;20191;-44
2022/01/25 05:42:48;;;;;;;16.87;11.97;;;5.20;57.80;;;;;;4964192;28;20446;-43
2022/01/25 05:45:36;;;;;;;17.13;12.50;;;5.20;57.60;;;;;;4967606;28;20538;-44
2022/01/25 05:48:03;;;;;;;19.33;11.73;;;5.30;57.40;;;;;;4967827;28;20521;-44
2022/01/25 05:50:29;;;;;;;19.20;11.90;;;5.30;57.40;;;;;;4967515;28;20446;-45
2022/01/25 05:52:54;;;;;;;19.90;12.70;;;5.30;57.20;;;;;;4973037;28;20954;-44
2022/01/25 05:55:20;;;;;;;18.50;13.30;;;5.30;57.10;;;;;;4967161;28;20195;-44
2022/01/25 05:57:45;;;;;;;18.03;12.33;;;5.30;57.30;;;;;;4966839;28;20226;-44
2022/01/25 06:00:11;;;;;;;19.30;12.67;;;5.30;57.10;;;;;;4967802;28;20195;-44
2022/01/25 06:02:37;;;;;;;20.00;12.80;;;5.40;56.90;;;;;;4969152;28;20195;-44
2022/01/25 06:05:04;;;;;;;20.30;12.00;;;5.40;56.70;;;;;;4969406;28;20449;-44
2022/01/25 06:07:30;;;;;;;16.47;12.10;;;5.40;56.50;;;;;;4971679;28;20199;-44
2022/01/25 06:09:55;;;;;;;18.43;13.30;;;5.50;56.50;;;;;;4966905;28;20830;-44
2022/01/25 06:12:21;;;;;;;18.30;12.70;;;5.50;56.40;;;;;;4966771;28;20227;-44
2022/01/25 06:14:46;;;;;;;19.53;12.77;;;5.40;56.20;;;;;;4971153;28;20670;-45
2022/01/25 06:17:12;;;;;;;19.13;13.10;;;5.50;56.50;;;;;;4970814;28;20257;-44
2022/01/25 06:19:38;;;;;;;21.30;14.20;;;5.50;56.60;;;;;;4970352;28;20195;-44
2022/01/25 06:22:04;;;;;;;22.63;14.90;;;5.50;56.40;;;;;;4969465;28;20206;-44
2022/01/25 06:24:29;;;;;;;23.27;15.43;;;5.50;56.30;;;;;;4967224;28;20579;-44
2022/01/25 06:26:55;;;;;;;24.50;13.80;;;5.50;56.30;;;;;;4973411;28;21185;-44
2022/01/25 06:29:20;;;;;;;22.03;14.83;;;5.40;56.40;;;;;;4964866;28;20192;-44
2022/01/25 06:31:49;;;;;;;23.97;13.50;;;5.40;56.50;;;;;;4964933;28;20286;-44
2022/01/25 06:34:16;;;;;;;22.53;12.90;;;5.50;57.40;;;;;;4971887;28;20191;-43
2022/01/25 06:36:42;;;;;;;19.50;13.60;;;5.80;58.50;;;;;;4965738;28;20482;-44
2022/01/25 06:39:08;;;;;;;18.57;12.40;;;6.20;59.30;;;;;;4966134;28;20861;-44
2022/01/25 06:41:36;;;;;;;16.23;10.50;;;6.60;59.30;;;;;;4967214;28;20475;-44
2022/01/25 06:44:02;;;;;;;19.77;13.80;;;6.90;58.50;;;;;;4968718;28;20459;-43
2022/01/25 06:46:28;;;;;;;27.60;16.33;;;7.20;57.60;;;;;;4973412;28;20438;-44
2022/01/25 06:48:53;;;;;;;19.50;13.40;;;7.40;56.50;;;;;;4973180;28;20469;-43
2022/01/25 06:51:19;;;;;;;17.33;13.37;;;7.60;54.80;;;;;;4971808;28;20235;-43
2022/01/25 06:53:44;;;;;;;17.67;12.47;;;7.50;53.10;;;;;;4972180;28;20195;-44
2022/01/25 06:56:10;;;;;;;21.63;12.63;;;7.50;53.70;;;;;;4971854;28;20237;-45
2022/01/25 06:58:35;;;;;;;17.30;13.07;;;7.40;52.70;;;;;;4971798;28;20199;-44
2022/01/25 07:01:02;;;;;;;20.47;12.67;;;7.40;53.00;;;;;;4978404;28;20246;-44
2022/01/25 07:03:28;;;;;;;15.33;11.70;;;7.30;51.60;;;;;;4961577;28;20613;-44
2022/01/25 07:05:53;;;;;;;17.87;11.87;;;7.20;51.70;;;;;;4975853;28;20446;-44
2022/01/25 07:08:19;;;;;;;17.50;12.10;;;6.70;51.70;;;;;;4973739;28;20199;-43
2022/01/25 07:10:45;;;;;;;17.57;12.13;;;6.50;52.30;;;;;;4973389;28;20591;-44
2022/01/25 07:13:10;;;;;;;17.50;12.20;;;6.10;52.80;;;;;;4972602;28;20278;-43
2022/01/25 07:15:36;;;;;;;19.23;12.67;;;6.00;53.50;;;;;;4974135;28;20202;-43
2022/01/25 07:18:02;;;;;;;18.90;11.93;;;5.90;53.90;;;;;;4970420;28;20191;-44
2022/01/25 07:20:28;;;;;;;18.43;12.07;;;5.80;53.90;;;;;;4974359;28;20281;-44
2022/01/25 07:22:53;;;;;;;25.00;13.10;;;5.60;54.60;;;;;;4979652;28;20651;-44
2022/01/25 07:25:19;;;;;;;20.60;13.17;;;5.50;54.90;;;;;;4972798;28;20439;-44
2022/01/25 07:27:45;;;;;;;21.53;13.13;;;5.50;54.90;;;;;;4971121;28;20222;-44
2022/01/25 07:30:11;;;;;;;18.20;12.70;;;5.50;54.80;;;;;;4971077;28;20435;-44
2022/01/25 07:32:37;;;;;;;17.47;12.93;;;5.60;55.40;;;;;;4981782;28;20230;-44
2022/01/25 07:35:04;;;;;;;21.93;13.20;;;5.80;55.30;;;;;;4967909;28;20205;-44
2022/01/25 07:37:29;;;;;;;23.23;15.47;;;6.00;54.80;;;;;;4972955;28;20441;-44
2022/01/25 07:39:56;;;;;;;23.43;16.90;;;6.50;54.20;;;;;;4976750;28;20922;-44
2022/01/25 07:42:22;;;;;;;23.20;14.93;;;7.00;52.80;;;;;;4982622;28;20619;-45
2022/01/25 07:44:48;;;;;;;22.33;15.47;;;7.50;51.70;;;;;;4970433;28;20454;-44
2022/01/25 07:47:14;;;;;;;19.87;13.03;;;7.90;51.00;;;;;;4965127;28;20191;-44
2022/01/25 07:49:39;;;;;;;21.60;13.30;;;8.20;49.60;;;;;;4975202;28;20191;-44
2022/01/25 07:52:07;;;;;;;19.53;13.30;;;8.30;49.60;;;;;;4971108;28;20223;-45
2022/01/25 07:54:33;;;;;;;17.27;13.07;;;8.50;49.20;;;;;;4971791;28;20719;-44
2022/01/25 07:56:58;;;;;;;18.03;12.53;;;8.40;49.30;;;;;;4970189;28;20538;-48
2022/01/25 07:59:24;;;;;;;17.43;12.53;;;8.50;49.40;;;;;;4972656;28;20667;-45
2022/01/25 08:01:51;;;;;;;20.53;13.50;;;8.80;49.30;;;;;;4978261;28;20249;-44
2022/01/25 08:04:17;;;;;;;16.97;12.57;;;8.90;48.40;;;;;;4971522;28;20195;-44
2022/01/25 08:06:42;;;;;;;20.30;13.57;;;8.60;48.40;;;;;;4970452;28;20553;-45
2022/01/25 08:09:09;;;;;;;22.00;13.93;;;8.10;50.00;;;;;;4970203;28;20258;-45
2022/01/25 08:11:35;;;;;;;19.40;14.20;;;8.00;50.60;;;;;;4972867;28;20650;-44
2022/01/25 08:14:11;;;;;;;15.20;12.73;;;8.10;50.60;;;;;;4977847;28;20461;-46
2022/01/25 08:16:38;;;;;;;21.97;14.00;;;8.30;50.40;;;;;;4971004;28;20470;-45
2022/01/25 08:19:04;;;;;;;25.30;14.67;;;8.40;50.40;;;;;;4971461;28;20440;-45
2022/01/25 08:21:29;;;;;;;18.63;13.93;;;8.40;50.70;;;;;;4972628;28;20438;-45
2022/01/25 08:23:55;;;;;;;18.43;13.90;;;8.30;50.80;;;;;;4978079;28;20195;-44
2022/01/25 08:26:20;;;;;;;19.80;13.40;;;8.30;51.10;;;;;;4974784;28;20192;-45
2022/01/25 08:28:46;;;;;;;19.50;14.73;;;8.20;51.00;;;;;;4974217;28;20187;-44
2022/01/25 08:31:12;;;;;;;19.33;13.43;;;8.00;51.50;;;;;;4983730;28;20242;-45
2022/01/25 08:33:39;;;;;;;16.93;13.23;;;7.80;52.50;;;;;;4975469;28;20647;-46
2022/01/25 08:36:05;;;;;;;22.17;13.83;;;7.70;52.70;;;;;;4979617;28;20183;-46
2022/01/25 08:38:30;;;;;;;20.80;14.90;;;7.70;52.90;;;;;;4977163;28;20461;-46
2022/01/25 08:40:56;;;;;;;19.60;14.03;;;7.60;53.10;;;;;;4974999;28;20484;-45
2022/01/25 08:43:22;;;;;;;26.53;16.13;;;7.60;53.60;;;;;;4973705;28;20203;-45
2022/01/25 08:45:47;;;;;;;24.43;15.10;;;7.60;54.00;;;;;;4973245;28;20587;-44
2022/01/25 08:48:13;;;;;;;20.67;14.20;;;7.40;54.60;;;;;;4975772;28;20858;-45
2022/01/25 08:50:39;;;;;;;23.30;15.40;;;7.40;54.70;;;;;;4979878;28;20633;-44
2022/01/25 08:53:07;;;;;;;21.33;13.70;;;7.50;54.40;;;;;;4974490;28;20191;-45
2022/01/25 08:55:32;;;;;;;20.03;14.30;;;7.60;54.40;;;;;;4968372;28;21168;-45
2022/01/25 08:57:58;;;;;;;21.57;15.50;;;7.70;54.20;;;;;;4967220;28;20431;-44
2022/01/25 09:00:24;;;;;;;18.17;14.50;;;7.60;54.50;;;;;;4980564;28;20256;-45
2022/01/25 09:02:50;;;;;;;24.97;15.43;;;7.70;54.60;;;;;;4979018;28;20252;-44
2022/01/25 09:05:15;;;;;;;19.93;14.20;;;7.70;54.30;;;;;;4974381;28;20274;-44
2022/01/25 09:07:41;;;;;;;21.30;13.70;;;7.80;54.10;;;;;;4973011;28;20203;-44
2022/01/25 09:10:08;;;;;;;22.37;15.30;;;7.90;53.80;;;;;;4975945;28;20223;-43
2022/01/25 09:12:34;;;;;;;24.17;17.00;;;7.90;54.00;;;;;;4969434;28;20227;-44
2022/01/25 09:15:00;;;;;;;25.40;16.50;;;7.90;54.30;;;;;;4974712;28;20435;-43
2022/01/25 09:17:25;;;;;;;23.73;16.13;;;7.90;54.30;;;;;;4972361;28;20211;-44
2022/01/25 09:19:51;;;;;;;20.90;15.20;;;7.60;54.70;;;;;;4973836;28;20282;-43
2022/01/25 09:22:17;;;;;;;25.07;15.30;;;7.60;55.40;;;;;;4976137;28;20226;-44
2022/01/25 09:24:42;;;;;;;22.33;14.33;;;7.60;56.20;;;;;;4971688;28;20362;-44
2022/01/25 09:27:08;;;;;;;23.70;15.43;;;7.60;55.90;;;;;;4969674;28;20195;-43
2022/01/25 09:29:35;;;;;;;21.03;15.87;;;7.60;55.80;;;;;;4980881;28;20195;-43
2022/01/25 09:32:00;;;;;;;21.37;15.80;;;7.40;55.10;;;;;;4975050;28;20494;-43
2022/01/25 09:34:27;;;;;;;21.43;15.60;;;7.40;55.80;;;;;;4975769;28;20431;-43
2022/01/25 09:36:53;;;;;;;21.30;15.10;;;7.60;56.20;;;;;;4979324;28;20199;-43
2022/01/25 09:39:19;;;;;;;19.97;15.13;;;7.80;55.50;;;;;;4969693;28;20570;-43
2022/01/25 09:41:46;;;;;;;17.50;13.80;;;8.20;54.90;;;;;;4975596;28;20509;-43
2022/01/25 09:44:11;;;;;;;21.17;14.53;;;8.40;54.30;;;;;;4976612;28;20426;-43
2022/01/25 09:46:39;;;;;;;19.37;14.13;;;8.60;53.80;;;;;;4974665;28;20451;-43
2022/01/25 09:49:05;;;;;;;20.03;14.93;;;8.90;53.10;;;;;;4980080;28;20199;-44
2022/01/25 09:51:32;;;;;;;20.53;15.20;;;8.90;52.30;;;;;;4982928;28;20601;-43
2022/01/25 09:53:58;;;;;;;19.00;15.23;;;9.20;52.00;;;;;;4978040;28;20214;-43
2022/01/25 09:56:24;;;;;;;20.90;16.30;;;9.60;51.70;;;;;;4973024;28;20439;-43
2022/01/25 09:58:50;;;;;;;20.83;15.00;;;9.80;50.50;;;;;;4982658;28;20187;-43
2022/01/25 10:01:25;;;;;;;23.67;17.23;;;9.50;50.50;;;;;;4970074;28;20198;-43
2022/01/25 10:03:50;;;;;;;20.20;15.37;;;9.80;50.50;;;;;;4972109;28;20442;-44
2022/01/25 10:06:20;;;;;;;21.57;15.60;;;10.10;48.70;;;;;;4972605;28;20457;-43
2022/01/25 10:08:49;;;;;;;19.77;16.23;;;10.40;48.10;;;;;;4971559;28;20203;-43
2022/01/25 10:11:16;;;;;;;20.73;15.90;;;10.80;47.50;;;;;;4972413;28;20969;-43
2022/01/25 10:13:50;;;;;;;19.83;15.93;;;10.90;47.30;;;;;;4972823;28;20443;-43
2022/01/25 10:16:33;;;;;;;21.20;17.10;;;11.10;46.50;;;;;;4982532;28;20441;-43
2022/01/25 10:19:12;;;;;;;19.03;14.77;;;11.30;46.00;;;;;;4971870;28;20443;-43
2022/01/25 10:21:50;;;;;;;20.03;15.43;;;11.40;46.30;;;;;;4969490;28;20500;-43
2022/01/25 10:24:21;;;;;;;22.97;16.20;;;11.60;46.20;;;;;;4975796;28;20509;-43
2022/01/25 10:26:53;;;;;;;19.83;15.87;;;11.70;46.30;;;;;;4970710;28;20443;-45
2022/01/25 10:29:22;;;;;;;17.93;14.50;;;12.00;45.70;;;;;;4971099;28;20450;-43
2022/01/25 10:31:59;;;;;;;21.83;16.00;;;12.00;45.70;;;;;;4972887;28;20543;-43
2022/01/25 10:34:30;;;;;;;19.00;15.13;;;12.10;45.70;;;;;;4970802;28;20443;-43
2022/01/25 10:36:57;;;;;;;21.43;16.10;;;12.20;45.20;;;;;;4966917;28;20449;-43
2022/01/25 10:39:31;;;;;;;18.87;15.10;;;12.30;45.40;;;;;;4966695;28;20451;-43
2022/01/25 10:42:10;;;;;;;19.63;14.10;;;12.40;45.50;;;;;;4967866;28;20561;-43
2022/01/25 10:44:46;;;;;;;19.73;15.73;;;12.70;45.00;;;;;;4970115;28;20493;-43
2022/01/25 10:47:11;;;;;;;19.80;15.00;;;12.80;44.50;;;;;;4973024;28;20438;-43
2022/01/25 10:49:49;;;;;;;19.20;15.67;;;12.90;44.70;;;;;;4974485;28;20823;-42
2022/01/25 10:52:26;;;;;;;18.53;15.37;;;13.00;44.60;;;;;;4958087;28;20262;-43
2022/01/25 10:54:52;;;;;;;19.57;15.43;;;13.20;44.20;;;;;;4969868;28;20485;-43
2022/01/25 10:57:19;;;;;;;21.77;15.37;;;13.30;43.30;;;;;;4972766;28;20977;-43
2022/01/25 11:00:00;;;;;;;19.23;15.50;;;13.30;43.50;;;;;;4971785;28;20206;-43
2022/01/25 11:02:26;;;;;;;18.67;14.83;;;13.20;43.80;;;;;;4973571;28;20541;-42
2022/01/25 11:05:05;;;;;;;19.30;15.83;;;13.20;43.30;;;;;;4977208;28;20593;-42
2022/01/25 11:07:45;;;;;;;20.63;15.53;;;13.40;43.10;;;;;;4967669;28;20917;-42
2022/01/25 11:10:21;;;;;;;19.70;15.87;;;13.50;43.20;;;;;;4963503;28;20434;-44
2022/01/25 11:13:01;;;;;;;23.33;15.83;;;13.80;42.70;;;;;;4969215;28;20947;-43
2022/01/25 11:15:27;;;;;;;23.07;17.17;;;13.90;42.20;;;;;;4970136;28;20806;-43
2022/01/25 11:17:52;;;;;;;20.67;17.27;;;14.00;42.00;;;;;;4970578;28;20441;-43
2022/01/25 11:20:18;;;;;;;22.50;16.80;;;13.90;42.20;;;;;;4971061;28;20309;-43
2022/01/25 11:22:45;;;;;;;24.03;16.40;;;13.80;41.80;;;;;;4970976;28;20219;-43
2022/01/25 11:25:14;;;;;;;20.67;16.27;;;14.00;41.80;;;;;;4971060;28;20199;-43
2022/01/25 11:27:41;;;;;;;19.60;15.97;;;13.90;42.50;;;;;;4970005;28;20453;-43
2022/01/25 11:30:11;;;;;;;19.27;16.23;;;13.90;43.10;;;;;;4970728;28;20463;-43
2022/01/25 11:32:41;;;;;;;20.60;16.77;;;13.90;42.90;;;;;;4977857;28;20622;-43
2022/01/25 11:35:10;;;;;;;18.33;15.97;;;13.90;42.90;;;;;;4978429;28;20427;-43
2022/01/25 11:37:47;;;;;;;22.03;16.53;;;13.90;42.10;;;;;;4972062;28;20443;-43
2022/01/25 11:40:20;;;;;;;20.40;15.83;;;13.90;42.70;;;;;;4971114;28;21186;-43
2022/01/25 11:42:48;;;;;;;21.37;16.90;;;13.90;43.10;;;;;;4972170;28;20453;-43
2022/01/25 11:45:14;;;;;;;18.47;15.70;;;13.80;43.00;;;;;;4970769;28;20798;-43
2022/01/25 11:47:40;;;;;;;21.10;16.13;;;14.00;42.80;;;;;;4970974;28;20445;-45
2022/01/25 11:50:10;;;;;;;20.67;17.20;;;13.90;43.50;;;;;;4971804;28;20207;-44
2022/01/25 11:52:45;;;;;;;21.73;17.37;;;13.90;43.50;;;;;;4966084;28;20517;-44
2022/01/25 11:55:19;;;;;;;21.80;17.50;;;14.00;43.10;;;;;;4971278;28;20442;-44
2022/01/25 11:58:00;;;;;;;20.10;17.20;;;13.90;43.40;;;;;;4975235;28;20450;-43
2022/01/25 12:00:48;;;;;;;24.83;20.13;;;13.70;43.90;;;;;;4976214;28;20434;-44
2022/01/25 12:03:37;;;;;;;20.37;18.17;;;13.70;44.30;;;;;;4975726;28;21009;-43
2022/01/25 12:06:08;;;;;;;23.90;17.57;;;13.70;44.50;;;;;;4975492;28;20812;-43
2022/01/25 12:11:28;;;;;;;26.47;20.10;;;13.70;43.90;;;;;;4975286;28;20565;-45
2022/01/25 12:14:25;;;;;;;25.90;21.33;;;13.60;45.10;;;;;;4976166;28;20892;-44
2022/01/25 12:17:02;;;;;;;22.17;17.67;;;13.50;45.00;;;;;;4982181;28;20439;-44
2022/01/25 12:19:30;;;;;;;24.23;19.47;;;13.50;44.60;;;;;;4975698;28;20495;-43
2022/01/25 12:22:19;;;;;;;23.07;18.80;;;13.50;44.60;;;;;;4974575;28;20442;-44
2022/01/25 12:24:51;;;;;;;25.97;21.10;;;13.60;44.90;;;;;;4975161;28;20431;-43
2022/01/25 12:29:59;;;;;;;27.00;19.17;;;13.70;44.80;;;;;;4975494;28;20470;-44
2022/01/25 12:32:35;;;;;;;22.30;19.17;;;13.70;44.70;;;;;;4974635;28;20593;-44
2022/01/25 12:35:09;;;;;;;23.03;19.13;;;13.80;44.80;;;;;;4975865;28;20476;-43
2022/01/25 12:37:44;;;;;;;22.60;18.03;;;13.90;44.80;;;;;;4973546;28;20488;-44
2022/01/25 12:40:25;;;;;;;23.87;20.27;;;14.00;44.60;;;;;;4981023;28;20450;-44
2022/01/25 12:43:03;;;;;;;25.80;20.87;;;14.20;44.00;;;;;;4981284;28;20804;-43
2022/01/25 12:45:31;;;;;;;22.77;18.53;;;14.10;44.20;;;;;;4971203;28;20996;-44
2022/01/25 12:48:06;;;;;;;21.67;18.07;;;13.80;44.30;;;;;;4977132;28;20572;-48
2022/01/25 12:50:34;;;;;;;25.00;20.37;;;13.80;44.70;;;;;;4980367;28;20445;-44
2022/01/25 12:53:02;;;;;;;25.00;20.17;;;13.80;44.60;;;;;;4966860;28;20617;-43
2022/01/25 12:55:33;;;;;;;22.87;20.10;;;13.90;44.60;;;;;;4977468;28;20450;-43
2022/01/25 12:57:58;;;;;;;23.93;18.90;;;14.10;44.60;;;;;;4972813;28;20438;-44
2022/01/25 13:00:35;;;;;;;22.73;18.40;;;14.20;44.10;;;;;;4974689;28;20446;-43
2022/01/25 13:03:14;;;;;;;26.70;19.50;;;14.20;45.20;;;;;;4976985;28;20226;-43
2022/01/25 13:06:08;;;;;;;25.33;20.27;;;14.60;44.70;;;;;;4974065;28;20454;-43
2022/01/25 13:08:34;;;;;;;22.83;20.40;;;14.70;43.40;;;;;;4969527;28;20678;-43
2022/01/25 13:11:20;;;;;;;28.30;21.00;;;14.90;43.00;;;;;;4975058;28;20473;-43
2022/01/25 13:14:15;;;;;;;22.07;18.70;;;15.00;42.80;;;;;;4963253;28;20238;-43
2022/01/25 13:16:43;;;;;;;27.13;20.43;;;15.10;42.80;;;;;;4976334;28;21021;-43
2022/01/25 13:19:10;;;;;;;22.20;18.80;;;15.10;42.40;;;;;;4974640;28;20443;-43
2022/01/25 13:21:40;;;;;;;22.73;19.80;;;15.10;42.60;;;;;;4974105;28;20505;-43
2022/01/25 13:24:09;;;;;;;29.17;21.13;;;15.20;42.50;;;;;;4977496;28;20485;-43
2022/01/25 13:26:39;;;;;;;25.63;21.20;;;15.30;42.30;;;;;;4973828;28;20493;-43
2022/01/25 13:32:10;;;;;;;26.63;19.50;;;15.30;42.30;;;;;;4973694;28;20501;-43
2022/01/25 13:34:36;;;;;;;24.30;21.40;;;15.20;42.00;;;;;;4975463;28;20473;-43
2022/01/25 13:37:02;;;;;;;30.73;22.03;;;15.20;41.90;;;;;;4971347;28;20957;-43
2022/01/25 13:39:29;;;;;;;27.23;22.30;;;15.20;42.00;;;;;;4974141;28;20443;-43
2022/01/25 13:42:08;;;;;;;26.87;22.67;;;15.30;42.40;;;;;;4979363;28;20243;-44
2022/01/25 13:47:18;;;;;;;30.23;22.00;;;15.30;41.90;;;;;;4973268;28;20814;-43
2022/01/25 13:49:44;;;;;;;27.17;20.83;;;15.30;42.00;;;;;;4974054;28;20442;-44
2022/01/25 13:52:09;;;;;;;27.93;21.97;;;15.30;41.70;;;;;;4972892;28;20496;-43
2022/01/25 13:54:35;;;;;;;28.60;22.50;;;15.40;41.90;;;;;;4974490;28;20442;-43
2022/01/25 13:57:10;;;;;;;27.10;23.40;;;15.40;41.80;;;;;;4973270;28;20674;-43
2022/01/25 13:59:36;;;;;;;26.60;23.30;;;15.40;41.60;;;;;;4973514;28;20205;-44
2022/01/25 14:02:02;;;;;;;30.50;23.60;;;15.20;42.00;;;;;;4973543;28;21057;-44
2022/01/25 14:04:30;;;;;;;31.77;26.13;;;15.10;42.50;;;;;;4972740;28;20521;-43
2022/01/25 14:07:00;;;;;;;34.17;24.43;;;14.80;43.20;;;;;;4972410;28;20450;-43
2022/01/25 14:09:34;;;;;;;32.70;26.43;;;14.40;44.20;;;;;;4973193;28;20465;-43
2022/01/25 14:25:40;;;;;;;33.70;26.87;;;14.20;44.20;;;;;;4973464;28;20435;-43
2022/01/25 14:28:13;;;;;;;38.80;29.00;;;14.00;44.50;;;;;;4964862;28;20525;-43
2022/01/25 14:30:45;;;;;;;40.33;27.60;;;13.90;44.90;;;;;;4973246;28;20438;-43
2022/01/25 14:33:16;;;;;;;40.70;27.60;;;13.90;44.60;;;;;;4972136;28;20445;-44
2022/01/25 14:35:59;;;;;;;35.73;25.87;;;13.80;44.50;;;;;;4973462;28;20437;-43
2022/01/25 14:38:25;;;;;;;38.50;28.53;;;13.80;44.60;;;;;;4972295;28;20462;-43
2022/01/25 14:41:04;;;;;;;40.50;26.77;;;13.60;44.90;;;;;;4982435;28;20472;-43
2022/01/25 14:43:32;;;;;;;35.93;24.17;;;13.50;44.70;;;;;;4974570;28;20726;-43
2022/01/25 14:46:13;;;;;;;41.40;27.87;;;13.60;44.80;;;;;;4973060;28;20414;-43
2022/01/25 14:48:43;;;;;;;40.93;28.20;;;13.60;44.50;;;;;;4973528;28;20534;-43